sensor_id;sensor_type;location;lat;lon;timestamp;P1;durP1;ratioP1;P2;durP2;ratioP2
1567;SDS011;777;47.156;8.326;2023-04-28T00:00:20;3.92;;;3.13;;
1567;SDS011;777;47.156;8.326;2023-04-28T00:02:48;8.80;;;3.55;;
1567;SDS011;777;47.156;8.326;2023-04-28T00:05:15;5.47;;;3.35;;
1567;SDS011;777;47.156;8.326;2023-04-28T00:07:42;4.60;;;3.53;;
1567;SDS011;777;47.156;8.326;2023-04-28T00:10:10;4.20;;;3.10;;
1567;SDS011;777;47.156;8.326;2023-04-28T00:12:37;5.90;;;3.13;;
1567;SDS011;777;47.156;8.326;2023-04-28T00:15:05;4.65;;;3.05;;
1567;SDS011;777;47.156;8.326;2023-04-28T00:17:33;3.85;;;2.75;;
1567;SDS011;777;47.156;8.326;2023-04-28T00:20:00;6.18;;;3.38;;
1567;SDS011;777;47.156;8.326;2023-04-28T00:22:27;3.55;;;3.13;;
1567;SDS011;777;47.156;8.326;2023-04-28T00:24:54;4.60;;;2.80;;
1567;SDS011;777;47.156;8.326;2023-04-28T00:27:22;5.00;;;3.40;;
1567;SDS011;777;47.156;8.326;2023-04-28T00:29:49;3.90;;;3.10;;
1567;SDS011;777;47.156;8.326;2023-04-28T00:32:17;4.25;;;2.78;;
1567;SDS011;777;47.156;8.326;2023-04-28T00:34:44;4.22;;;2.92;;
1567;SDS011;777;47.156;8.326;2023-04-28T00:37:11;4.25;;;3.20;;
1567;SDS011;777;47.156;8.326;2023-04-28T00:39:38;4.55;;;3.20;;
1567;SDS011;777;47.156;8.326;2023-04-28T00:42:05;4.65;;;3.33;;
1567;SDS011;777;47.156;8.326;2023-04-28T00:44:34;4.65;;;3.03;;
1567;SDS011;777;47.156;8.326;2023-04-28T00:47:01;5.82;;;3.03;;
1567;SDS011;777;47.156;8.326;2023-04-28T00:49:28;5.85;;;3.22;;
1567;SDS011;777;47.156;8.326;2023-04-28T00:51:56;4.10;;;3.10;;
1567;SDS011;777;47.156;8.326;2023-04-28T00:54:27;3.65;;;2.80;;
1567;SDS011;777;47.156;8.326;2023-04-28T00:56:54;7.57;;;3.60;;
1567;SDS011;777;47.156;8.326;2023-04-28T00:59:22;4.65;;;3.35;;
1567;SDS011;777;47.156;8.326;2023-04-28T01:01:51;3.70;;;2.80;;
1567;SDS011;777;47.156;8.326;2023-04-28T01:04:19;5.68;;;3.30;;
1567;SDS011;777;47.156;8.326;2023-04-28T01:06:48;4.47;;;3.20;;
1567;SDS011;777;47.156;8.326;2023-04-28T01:09:16;4.85;;;3.42;;
1567;SDS011;777;47.156;8.326;2023-04-28T01:11:43;5.30;;;3.75;;
1567;SDS011;777;47.156;8.326;2023-04-28T01:14:16;9.40;;;3.85;;
1567;SDS011;777;47.156;8.326;2023-04-28T01:16:43;5.20;;;3.60;;
1567;SDS011;777;47.156;8.326;2023-04-28T01:19:14;6.47;;;3.90;;
1567;SDS011;777;47.156;8.326;2023-04-28T01:21:45;6.25;;;4.20;;
1567;SDS011;777;47.156;8.326;2023-04-28T01:24:21;6.68;;;4.00;;
1567;SDS011;777;47.156;8.326;2023-04-28T01:26:49;9.45;;;4.57;;
1567;SDS011;777;47.156;8.326;2023-04-28T01:29:16;5.30;;;4.38;;
1567;SDS011;777;47.156;8.326;2023-04-28T01:31:43;7.30;;;3.97;;
1567;SDS011;777;47.156;8.326;2023-04-28T01:34:10;6.57;;;4.00;;
1567;SDS011;777;47.156;8.326;2023-04-28T01:36:37;6.53;;;4.43;;
1567;SDS011;777;47.156;8.326;2023-04-28T01:39:04;5.50;;;3.92;;
1567;SDS011;777;47.156;8.326;2023-04-28T01:41:33;5.93;;;4.38;;
1567;SDS011;777;47.156;8.326;2023-04-28T01:44:02;4.40;;;4.00;;
1567;SDS011;777;47.156;8.326;2023-04-28T01:46:31;6.20;;;3.92;;
1567;SDS011;777;47.156;8.326;2023-04-28T01:48:58;5.30;;;3.85;;
1567;SDS011;777;47.156;8.326;2023-04-28T01:51:25;4.63;;;4.05;;
1567;SDS011;777;47.156;8.326;2023-04-28T01:53:52;6.05;;;4.07;;
1567;SDS011;777;47.156;8.326;2023-04-28T01:56:20;4.57;;;3.95;;
1567;SDS011;777;47.156;8.326;2023-04-28T01:58:49;8.10;;;4.10;;
1567;SDS011;777;47.156;8.326;2023-04-28T02:01:16;4.30;;;3.75;;
1567;SDS011;777;47.156;8.326;2023-04-28T02:03:43;5.43;;;4.32;;
1567;SDS011;777;47.156;8.326;2023-04-28T02:06:10;6.35;;;4.40;;
1567;SDS011;777;47.156;8.326;2023-04-28T02:08:37;4.20;;;3.63;;
1567;SDS011;777;47.156;8.326;2023-04-28T02:11:04;4.80;;;3.50;;
1567;SDS011;777;47.156;8.326;2023-04-28T02:13:31;4.55;;;3.97;;
1567;SDS011;777;47.156;8.326;2023-04-28T02:16:00;5.10;;;3.92;;
1567;SDS011;777;47.156;8.326;2023-04-28T02:18:27;5.70;;;3.60;;
1567;SDS011;777;47.156;8.326;2023-04-28T02:21:06;6.50;;;3.63;;
1567;SDS011;777;47.156;8.326;2023-04-28T02:23:34;3.85;;;3.42;;
1567;SDS011;777;47.156;8.326;2023-04-28T02:26:03;6.72;;;3.28;;
1567;SDS011;777;47.156;8.326;2023-04-28T02:28:31;4.82;;;3.63;;
1567;SDS011;777;47.156;8.326;2023-04-28T02:31:06;4.13;;;3.40;;
1567;SDS011;777;47.156;8.326;2023-04-28T02:33:34;4.57;;;3.17;;
1567;SDS011;777;47.156;8.326;2023-04-28T02:36:01;5.55;;;3.40;;
1567;SDS011;777;47.156;8.326;2023-04-28T02:38:29;4.53;;;3.38;;
1567;SDS011;777;47.156;8.326;2023-04-28T02:40:57;4.40;;;3.35;;
1567;SDS011;777;47.156;8.326;2023-04-28T02:43:25;4.22;;;3.13;;
1567;SDS011;777;47.156;8.326;2023-04-28T02:45:52;4.20;;;3.53;;
1567;SDS011;777;47.156;8.326;2023-04-28T02:48:23;3.72;;;2.90;;
1567;SDS011;777;47.156;8.326;2023-04-28T02:50:51;5.28;;;2.97;;
1567;SDS011;777;47.156;8.326;2023-04-28T02:53:18;3.88;;;3.08;;
1567;SDS011;777;47.156;8.326;2023-04-28T02:55:46;3.15;;;2.78;;
1567;SDS011;777;47.156;8.326;2023-04-28T02:58:13;5.50;;;3.17;;
1567;SDS011;777;47.156;8.326;2023-04-28T03:00:42;4.40;;;3.13;;
1567;SDS011;777;47.156;8.326;2023-04-28T03:03:09;4.95;;;3.35;;
1567;SDS011;777;47.156;8.326;2023-04-28T03:05:37;4.40;;;3.47;;
1567;SDS011;777;47.156;8.326;2023-04-28T03:08:04;4.20;;;3.53;;
1567;SDS011;777;47.156;8.326;2023-04-28T03:10:32;4.90;;;3.35;;
1567;SDS011;777;47.156;8.326;2023-04-28T03:13:01;7.63;;;3.60;;
1567;SDS011;777;47.156;8.326;2023-04-28T03:15:29;5.25;;;3.45;;
1567;SDS011;777;47.156;8.326;2023-04-28T03:17:56;8.20;;;3.70;;
1567;SDS011;777;47.156;8.326;2023-04-28T03:20:23;6.75;;;3.95;;
1567;SDS011;777;47.156;8.326;2023-04-28T03:22:52;6.03;;;3.85;;
1567;SDS011;777;47.156;8.326;2023-04-28T03:25:19;3.55;;;3.08;;
1567;SDS011;777;47.156;8.326;2023-04-28T03:27:49;5.45;;;3.38;;
1567;SDS011;777;47.156;8.326;2023-04-28T03:30:16;5.47;;;3.35;;
1567;SDS011;777;47.156;8.326;2023-04-28T03:32:44;4.75;;;3.38;;
1567;SDS011;777;47.156;8.326;2023-04-28T03:35:11;4.70;;;3.78;;
1567;SDS011;777;47.156;8.326;2023-04-28T03:37:39;4.72;;;3.70;;
1567;SDS011;777;47.156;8.326;2023-04-28T03:40:08;5.13;;;3.80;;
1567;SDS011;777;47.156;8.326;2023-04-28T03:42:55;4.95;;;3.50;;
1567;SDS011;777;47.156;8.326;2023-04-28T03:45:27;5.50;;;3.88;;
1567;SDS011;777;47.156;8.326;2023-04-28T03:47:54;4.03;;;3.63;;
1567;SDS011;777;47.156;8.326;2023-04-28T03:50:21;5.20;;;3.78;;
1567;SDS011;777;47.156;8.326;2023-04-28T03:52:49;4.43;;;3.58;;
1567;SDS011;777;47.156;8.326;2023-04-28T03:55:17;4.03;;;3.63;;
1567;SDS011;777;47.156;8.326;2023-04-28T03:57:44;6.28;;;3.88;;
1567;SDS011;777;47.156;8.326;2023-04-28T04:00:12;6.85;;;4.43;;
1567;SDS011;777;47.156;8.326;2023-04-28T04:02:44;5.35;;;4.53;;
1567;SDS011;777;47.156;8.326;2023-04-28T04:05:12;5.53;;;4.80;;
1567;SDS011;777;47.156;8.326;2023-04-28T04:07:39;6.75;;;4.70;;
1567;SDS011;777;47.156;8.326;2023-04-28T04:10:06;7.43;;;5.35;;
1567;SDS011;777;47.156;8.326;2023-04-28T04:12:37;6.57;;;4.88;;
1567;SDS011;777;47.156;8.326;2023-04-28T04:15:05;5.45;;;4.90;;
1567;SDS011;777;47.156;8.326;2023-04-28T04:17:33;8.00;;;5.32;;
1567;SDS011;777;47.156;8.326;2023-04-28T04:20:01;5.57;;;4.82;;
1567;SDS011;777;47.156;8.326;2023-04-28T04:22:28;5.40;;;4.85;;
1567;SDS011;777;47.156;8.326;2023-04-28T04:24:55;5.95;;;4.70;;
1567;SDS011;777;47.156;8.326;2023-04-28T04:27:24;6.47;;;5.38;;
1567;SDS011;777;47.156;8.326;2023-04-28T04:29:52;5.50;;;4.60;;
1567;SDS011;777;47.156;8.326;2023-04-28T04:32:19;7.50;;;5.03;;
1567;SDS011;777;47.156;8.326;2023-04-28T04:34:48;8.32;;;5.13;;
1567;SDS011;777;47.156;8.326;2023-04-28T04:37:15;6.72;;;5.45;;
1567;SDS011;777;47.156;8.326;2023-04-28T04:39:51;8.93;;;5.82;;
1567;SDS011;777;47.156;8.326;2023-04-28T04:42:18;7.15;;;5.82;;
1567;SDS011;777;47.156;8.326;2023-04-28T04:44:50;9.68;;;6.18;;
1567;SDS011;777;47.156;8.326;2023-04-28T04:47:25;8.10;;;5.78;;
1567;SDS011;777;47.156;8.326;2023-04-28T04:49:53;7.68;;;5.95;;
1567;SDS011;777;47.156;8.326;2023-04-28T04:52:21;7.22;;;6.20;;
1567;SDS011;777;47.156;8.326;2023-04-28T04:54:49;7.57;;;5.80;;
1567;SDS011;777;47.156;8.326;2023-04-28T04:57:16;6.30;;;5.47;;
1567;SDS011;777;47.156;8.326;2023-04-28T05:00:04;9.57;;;5.80;;
1567;SDS011;777;47.156;8.326;2023-04-28T05:02:32;7.88;;;6.38;;
1567;SDS011;777;47.156;8.326;2023-04-28T05:05:00;8.52;;;6.05;;
1567;SDS011;777;47.156;8.326;2023-04-28T05:07:27;7.78;;;6.28;;
1567;SDS011;777;47.156;8.326;2023-04-28T05:09:54;10.32;;;6.70;;
1567;SDS011;777;47.156;8.326;2023-04-28T05:12:21;8.43;;;6.50;;
1567;SDS011;777;47.156;8.326;2023-04-28T05:14:48;6.85;;;6.15;;
1567;SDS011;777;47.156;8.326;2023-04-28T05:17:19;8.23;;;6.50;;
1567;SDS011;777;47.156;8.326;2023-04-28T05:19:46;8.60;;;6.68;;
1567;SDS011;777;47.156;8.326;2023-04-28T05:22:14;7.10;;;6.40;;
1567;SDS011;777;47.156;8.326;2023-04-28T05:24:41;7.78;;;6.10;;
1567;SDS011;777;47.156;8.326;2023-04-28T05:27:08;9.15;;;5.53;;
1567;SDS011;777;47.156;8.326;2023-04-28T05:29:35;7.88;;;5.63;;
1567;SDS011;777;47.156;8.326;2023-04-28T05:32:02;7.85;;;6.15;;
1567;SDS011;777;47.156;8.326;2023-04-28T05:34:32;8.15;;;5.82;;
1567;SDS011;777;47.156;8.326;2023-04-28T05:36:59;6.95;;;5.43;;
1567;SDS011;777;47.156;8.326;2023-04-28T05:39:28;7.10;;;5.90;;
1567;SDS011;777;47.156;8.326;2023-04-28T05:41:58;8.65;;;5.60;;
1567;SDS011;777;47.156;8.326;2023-04-28T05:44:26;6.55;;;5.40;;
1567;SDS011;777;47.156;8.326;2023-04-28T05:46:53;5.55;;;5.00;;
1567;SDS011;777;47.156;8.326;2023-04-28T05:49:24;5.95;;;5.13;;
1567;SDS011;777;47.156;8.326;2023-04-28T05:51:53;6.63;;;4.78;;
1567;SDS011;777;47.156;8.326;2023-04-28T05:54:20;4.55;;;4.07;;
1567;SDS011;777;47.156;8.326;2023-04-28T05:56:51;6.93;;;4.25;;
1567;SDS011;777;47.156;8.326;2023-04-28T05:59:18;5.07;;;3.47;;
1567;SDS011;777;47.156;8.326;2023-04-28T06:01:45;5.15;;;4.10;;
1567;SDS011;777;47.156;8.326;2023-04-28T06:04:12;4.30;;;3.90;;
1567;SDS011;777;47.156;8.326;2023-04-28T06:06:39;4.38;;;3.78;;
1567;SDS011;777;47.156;8.326;2023-04-28T06:09:08;4.70;;;3.83;;
1567;SDS011;777;47.156;8.326;2023-04-28T06:11:35;4.75;;;3.83;;
1567;SDS011;777;47.156;8.326;2023-04-28T06:14:02;4.57;;;3.70;;
1567;SDS011;777;47.156;8.326;2023-04-28T06:16:29;4.18;;;3.70;;
1567;SDS011;777;47.156;8.326;2023-04-28T06:18:56;3.92;;;3.55;;
1567;SDS011;777;47.156;8.326;2023-04-28T06:21:23;4.35;;;3.47;;
1567;SDS011;777;47.156;8.326;2023-04-28T06:23:51;7.20;;;3.72;;
1567;SDS011;777;47.156;8.326;2023-04-28T06:26:20;5.10;;;4.05;;
1567;SDS011;777;47.156;8.326;2023-04-28T06:28:47;7.95;;;5.20;;
1567;SDS011;777;47.156;8.326;2023-04-28T06:31:14;5.90;;;4.25;;
1567;SDS011;777;47.156;8.326;2023-04-28T06:33:42;5.93;;;4.30;;
1567;SDS011;777;47.156;8.326;2023-04-28T06:36:09;7.45;;;4.40;;
1567;SDS011;777;47.156;8.326;2023-04-28T06:38:38;6.38;;;4.10;;
1567;SDS011;777;47.156;8.326;2023-04-28T06:41:05;6.30;;;4.15;;
1567;SDS011;777;47.156;8.326;2023-04-28T06:43:34;6.00;;;4.57;;
1567;SDS011;777;47.156;8.326;2023-04-28T06:46:12;6.22;;;4.15;;
1567;SDS011;777;47.156;8.326;2023-04-28T06:48:41;6.13;;;4.25;;
1567;SDS011;777;47.156;8.326;2023-04-28T06:51:08;6.13;;;4.10;;
1567;SDS011;777;47.156;8.326;2023-04-28T06:53:35;4.75;;;3.63;;
1567;SDS011;777;47.156;8.326;2023-04-28T06:56:06;6.72;;;4.00;;
1567;SDS011;777;47.156;8.326;2023-04-28T06:58:34;5.18;;;3.90;;
1567;SDS011;777;47.156;8.326;2023-04-28T07:01:02;5.07;;;3.92;;
1567;SDS011;777;47.156;8.326;2023-04-28T07:03:29;4.75;;;3.75;;
1567;SDS011;777;47.156;8.326;2023-04-28T07:05:56;6.45;;;4.20;;
1567;SDS011;777;47.156;8.326;2023-04-28T07:08:23;6.28;;;4.10;;
1567;SDS011;777;47.156;8.326;2023-04-28T07:10:50;6.85;;;4.10;;
1567;SDS011;777;47.156;8.326;2023-04-28T07:13:17;5.82;;;3.92;;
1567;SDS011;777;47.156;8.326;2023-04-28T07:15:47;6.15;;;4.05;;
1567;SDS011;777;47.156;8.326;2023-04-28T07:18:14;6.20;;;4.10;;
1567;SDS011;777;47.156;8.326;2023-04-28T07:20:41;5.28;;;4.20;;
1567;SDS011;777;47.156;8.326;2023-04-28T07:23:08;4.15;;;3.45;;
1567;SDS011;777;47.156;8.326;2023-04-28T07:25:35;4.03;;;3.63;;
1567;SDS011;777;47.156;8.326;2023-04-28T07:28:02;6.38;;;4.30;;
1567;SDS011;777;47.156;8.326;2023-04-28T07:30:30;5.53;;;4.38;;
1567;SDS011;777;47.156;8.326;2023-04-28T07:32:58;7.65;;;4.75;;
1567;SDS011;777;47.156;8.326;2023-04-28T07:35:26;5.85;;;3.83;;
1567;SDS011;777;47.156;8.326;2023-04-28T07:37:53;4.50;;;3.92;;
1567;SDS011;777;47.156;8.326;2023-04-28T07:40:22;4.57;;;3.60;;
1567;SDS011;777;47.156;8.326;2023-04-28T07:42:49;4.07;;;3.67;;
1567;SDS011;777;47.156;8.326;2023-04-28T07:45:17;5.05;;;3.75;;
1567;SDS011;777;47.156;8.326;2023-04-28T07:47:44;6.53;;;4.20;;
1567;SDS011;777;47.156;8.326;2023-04-28T07:50:12;5.43;;;3.90;;
1567;SDS011;777;47.156;8.326;2023-04-28T07:52:40;4.35;;;3.60;;
1567;SDS011;777;47.156;8.326;2023-04-28T07:55:07;6.63;;;3.60;;
1567;SDS011;777;47.156;8.326;2023-04-28T07:57:34;5.15;;;3.42;;
1567;SDS011;777;47.156;8.326;2023-04-28T08:00:01;4.80;;;3.05;;
1567;SDS011;777;47.156;8.326;2023-04-28T08:02:37;4.68;;;3.22;;
1567;SDS011;777;47.156;8.326;2023-04-28T08:05:04;4.97;;;2.78;;
1567;SDS011;777;47.156;8.326;2023-04-28T08:07:34;4.85;;;3.40;;
1567;SDS011;777;47.156;8.326;2023-04-28T08:10:02;3.20;;;2.72;;
1567;SDS011;777;47.156;8.326;2023-04-28T08:12:29;4.80;;;2.80;;
1567;SDS011;777;47.156;8.326;2023-04-28T08:14:56;4.78;;;2.45;;
1567;SDS011;777;47.156;8.326;2023-04-28T08:17:23;4.15;;;2.78;;
1567;SDS011;777;47.156;8.326;2023-04-28T08:19:51;4.40;;;2.65;;
1567;SDS011;777;47.156;8.326;2023-04-28T08:22:18;5.72;;;2.80;;
1567;SDS011;777;47.156;8.326;2023-04-28T08:24:46;3.60;;;2.80;;
1567;SDS011;777;47.156;8.326;2023-04-28T08:27:13;4.15;;;3.17;;
1567;SDS011;777;47.156;8.326;2023-04-28T08:29:40;4.68;;;3.30;;
1567;SDS011;777;47.156;8.326;2023-04-28T08:32:07;3.75;;;2.78;;
1567;SDS011;777;47.156;8.326;2023-04-28T08:34:34;5.53;;;2.97;;
1567;SDS011;777;47.156;8.326;2023-04-28T08:37:01;4.70;;;3.22;;
1567;SDS011;777;47.156;8.326;2023-04-28T08:39:28;5.03;;;2.80;;
1567;SDS011;777;47.156;8.326;2023-04-28T08:41:57;4.50;;;2.92;;
1567;SDS011;777;47.156;8.326;2023-04-28T08:44:24;6.55;;;3.20;;
1567;SDS011;777;47.156;8.326;2023-04-28T08:46:52;4.15;;;2.95;;
1567;SDS011;777;47.156;8.326;2023-04-28T08:49:22;7.78;;;3.30;;
1567;SDS011;777;47.156;8.326;2023-04-28T08:51:58;5.18;;;3.20;;
1567;SDS011;777;47.156;8.326;2023-04-28T08:54:25;3.33;;;2.88;;
1567;SDS011;777;47.156;8.326;2023-04-28T08:56:58;3.03;;;2.70;;
1567;SDS011;777;47.156;8.326;2023-04-28T08:59:26;5.03;;;3.28;;
1567;SDS011;777;47.156;8.326;2023-04-28T09:01:53;4.72;;;3.67;;
1567;SDS011;777;47.156;8.326;2023-04-28T09:04:21;7.45;;;4.60;;
1567;SDS011;777;47.156;8.326;2023-04-28T09:06:48;5.10;;;4.57;;
1567;SDS011;777;47.156;8.326;2023-04-28T09:09:19;5.78;;;4.53;;
1567;SDS011;777;47.156;8.326;2023-04-28T09:11:50;6.32;;;4.90;;
1567;SDS011;777;47.156;8.326;2023-04-28T09:14:24;6.05;;;5.07;;
1567;SDS011;777;47.156;8.326;2023-04-28T09:16:51;7.00;;;5.05;;
1567;SDS011;777;47.156;8.326;2023-04-28T09:19:18;6.90;;;5.20;;
1567;SDS011;777;47.156;8.326;2023-04-28T09:21:46;6.07;;;5.47;;
1567;SDS011;777;47.156;8.326;2023-04-28T09:26:57;7.70;;;5.72;;
1567;SDS011;777;47.156;8.326;2023-04-28T09:32:28;7.13;;;5.32;;
1567;SDS011;777;47.156;8.326;2023-04-28T09:34:55;7.05;;;5.32;;
1567;SDS011;777;47.156;8.326;2023-04-28T09:37:24;7.53;;;5.40;;
1567;SDS011;777;47.156;8.326;2023-04-28T09:39:54;5.13;;;4.63;;
1567;SDS011;777;47.156;8.326;2023-04-28T09:42:32;6.13;;;4.20;;
1567;SDS011;777;47.156;8.326;2023-04-28T09:45:02;5.00;;;4.30;;
1567;SDS011;777;47.156;8.326;2023-04-28T09:47:30;5.68;;;4.20;;
1567;SDS011;777;47.156;8.326;2023-04-28T09:49:59;6.18;;;5.43;;
1567;SDS011;777;47.156;8.326;2023-04-28T09:52:27;6.20;;;5.60;;
1567;SDS011;777;47.156;8.326;2023-04-28T09:54:55;8.68;;;5.55;;
1567;SDS011;777;47.156;8.326;2023-04-28T09:57:22;10.10;;;5.82;;
1567;SDS011;777;47.156;8.326;2023-04-28T09:59:50;7.68;;;6.15;;
1567;SDS011;777;47.156;8.326;2023-04-28T10:02:20;11.80;;;9.05;;
1567;SDS011;777;47.156;8.326;2023-04-28T10:04:47;12.60;;;10.05;;
1567;SDS011;777;47.156;8.326;2023-04-28T10:07:16;13.60;;;11.73;;
1567;SDS011;777;47.156;8.326;2023-04-28T10:09:45;13.40;;;11.85;;
1567;SDS011;777;47.156;8.326;2023-04-28T10:12:14;17.48;;;14.77;;
1567;SDS011;777;47.156;8.326;2023-04-28T10:14:42;21.15;;;18.77;;
1567;SDS011;777;47.156;8.326;2023-04-28T10:17:09;18.73;;;16.92;;
1567;SDS011;777;47.156;8.326;2023-04-28T10:19:40;17.25;;;15.45;;
1567;SDS011;777;47.156;8.326;2023-04-28T10:22:14;13.15;;;11.85;;
1567;SDS011;777;47.156;8.326;2023-04-28T10:24:54;12.48;;;11.07;;
1567;SDS011;777;47.156;8.326;2023-04-28T10:27:36;11.88;;;10.77;;
1567;SDS011;777;47.156;8.326;2023-04-28T10:30:11;12.48;;;10.77;;
1567;SDS011;777;47.156;8.326;2023-04-28T10:32:38;13.93;;;9.93;;
1567;SDS011;777;47.156;8.326;2023-04-28T10:38:09;8.82;;;7.93;;
1567;SDS011;777;47.156;8.326;2023-04-28T10:40:38;9.13;;;8.02;;
1567;SDS011;777;47.156;8.326;2023-04-28T10:43:05;9.73;;;7.82;;
1567;SDS011;777;47.156;8.326;2023-04-28T10:48:52;7.60;;;6.80;;
1567;SDS011;777;47.156;8.326;2023-04-28T10:51:25;7.75;;;5.57;;
1567;SDS011;777;47.156;8.326;2023-04-28T10:54:06;8.90;;;5.68;;
1567;SDS011;777;47.156;8.326;2023-04-28T10:56:39;7.57;;;5.50;;
1567;SDS011;777;47.156;8.326;2023-04-28T10:59:25;7.00;;;5.88;;
1567;SDS011;777;47.156;8.326;2023-04-28T11:01:54;7.43;;;5.50;;
1567;SDS011;777;47.156;8.326;2023-04-28T11:04:21;6.30;;;5.10;;
1567;SDS011;777;47.156;8.326;2023-04-28T11:09:47;5.43;;;4.85;;
1567;SDS011;777;47.156;8.326;2023-04-28T11:12:16;5.60;;;4.95;;
1567;SDS011;777;47.156;8.326;2023-04-28T11:14:44;8.48;;;5.90;;
1567;SDS011;777;47.156;8.326;2023-04-28T11:17:11;6.93;;;5.93;;
1567;SDS011;777;47.156;8.326;2023-04-28T11:19:41;7.38;;;6.43;;
1567;SDS011;777;47.156;8.326;2023-04-28T11:22:14;7.88;;;6.82;;
1567;SDS011;777;47.156;8.326;2023-04-28T11:24:53;8.07;;;7.03;;
1567;SDS011;777;47.156;8.326;2023-04-28T11:27:24;8.43;;;6.80;;
1567;SDS011;777;47.156;8.326;2023-04-28T11:29:52;7.78;;;6.22;;
1567;SDS011;777;47.156;8.326;2023-04-28T11:32:24;7.32;;;6.38;;
1567;SDS011;777;47.156;8.326;2023-04-28T11:34:53;10.20;;;6.57;;
1567;SDS011;777;47.156;8.326;2023-04-28T11:37:22;9.50;;;6.00;;
1567;SDS011;777;47.156;8.326;2023-04-28T11:39:49;8.60;;;6.40;;
1567;SDS011;777;47.156;8.326;2023-04-28T11:42:16;8.02;;;6.53;;
1567;SDS011;777;47.156;8.326;2023-04-28T11:44:48;6.25;;;5.60;;
1567;SDS011;777;47.156;8.326;2023-04-28T11:47:27;10.07;;;5.60;;
1567;SDS011;777;47.156;8.326;2023-04-28T11:49:55;7.85;;;5.65;;
1567;SDS011;777;47.156;8.326;2023-04-28T11:52:24;8.77;;;6.00;;
1567;SDS011;777;47.156;8.326;2023-04-28T11:54:52;6.60;;;5.75;;
1567;SDS011;777;47.156;8.326;2023-04-28T11:57:20;7.65;;;6.35;;
1567;SDS011;777;47.156;8.326;2023-04-28T11:59:48;6.78;;;5.90;;
1567;SDS011;777;47.156;8.326;2023-04-28T12:02:18;6.18;;;5.47;;
1567;SDS011;777;47.156;8.326;2023-04-28T12:04:52;6.50;;;5.75;;
1567;SDS011;777;47.156;8.326;2023-04-28T12:07:19;6.30;;;5.60;;
1567;SDS011;777;47.156;8.326;2023-04-28T12:09:47;6.40;;;5.43;;
1567;SDS011;777;47.156;8.326;2023-04-28T12:12:35;6.82;;;5.68;;
1567;SDS011;777;47.156;8.326;2023-04-28T12:15:03;6.90;;;6.20;;
1567;SDS011;777;47.156;8.326;2023-04-28T12:17:31;6.65;;;5.82;;
1567;SDS011;777;47.156;8.326;2023-04-28T12:20:00;6.97;;;5.72;;
1567;SDS011;777;47.156;8.326;2023-04-28T12:22:29;7.85;;;6.00;;
1567;SDS011;777;47.156;8.326;2023-04-28T12:25:05;8.55;;;5.90;;
1567;SDS011;777;47.156;8.326;2023-04-28T12:27:33;7.35;;;5.80;;
1567;SDS011;777;47.156;8.326;2023-04-28T12:30:03;7.60;;;6.38;;
1567;SDS011;777;47.156;8.326;2023-04-28T12:32:50;8.18;;;5.93;;
1567;SDS011;777;47.156;8.326;2023-04-28T12:35:20;7.20;;;6.13;;
1567;SDS011;777;47.156;8.326;2023-04-28T12:37:47;7.43;;;5.85;;
1567;SDS011;777;47.156;8.326;2023-04-28T12:40:16;8.35;;;5.47;;
1567;SDS011;777;47.156;8.326;2023-04-28T12:42:43;6.47;;;5.05;;
1567;SDS011;777;47.156;8.326;2023-04-28T12:45:10;5.95;;;5.35;;
1567;SDS011;777;47.156;8.326;2023-04-28T12:47:37;6.63;;;4.97;;
1567;SDS011;777;47.156;8.326;2023-04-28T12:50:05;6.40;;;4.70;;
1567;SDS011;777;47.156;8.326;2023-04-28T12:52:33;7.68;;;4.80;;
1567;SDS011;777;47.156;8.326;2023-04-28T12:55:01;5.38;;;4.05;;
1567;SDS011;777;47.156;8.326;2023-04-28T12:57:30;6.18;;;4.40;;
1567;SDS011;777;47.156;8.326;2023-04-28T13:00:00;6.45;;;4.47;;
1567;SDS011;777;47.156;8.326;2023-04-28T13:02:28;7.43;;;4.22;;
1567;SDS011;777;47.156;8.326;2023-04-28T13:04:55;7.75;;;5.50;;
1567;SDS011;777;47.156;8.326;2023-04-28T13:07:22;8.40;;;5.10;;
1567;SDS011;777;47.156;8.326;2023-04-28T13:09:49;7.55;;;5.53;;
1567;SDS011;777;47.156;8.326;2023-04-28T13:12:16;7.80;;;5.22;;
1567;SDS011;777;47.156;8.326;2023-04-28T13:14:44;8.75;;;5.75;;
1567;SDS011;777;47.156;8.326;2023-04-28T13:17:11;7.43;;;5.78;;
1567;SDS011;777;47.156;8.326;2023-04-28T13:19:38;8.40;;;5.97;;
1567;SDS011;777;47.156;8.326;2023-04-28T13:22:05;6.40;;;5.43;;
1567;SDS011;777;47.156;8.326;2023-04-28T13:24:33;7.93;;;6.25;;
1567;SDS011;777;47.156;8.326;2023-04-28T13:27:00;8.57;;;6.18;;
1567;SDS011;777;47.156;8.326;2023-04-28T13:29:28;6.85;;;5.45;;
1567;SDS011;777;47.156;8.326;2023-04-28T13:31:56;6.95;;;5.38;;
1567;SDS011;777;47.156;8.326;2023-04-28T13:34:23;6.78;;;5.60;;
1567;SDS011;777;47.156;8.326;2023-04-28T13:36:50;7.90;;;4.95;;
1567;SDS011;777;47.156;8.326;2023-04-28T13:39:18;5.57;;;3.75;;
1567;SDS011;777;47.156;8.326;2023-04-28T13:41:46;5.63;;;3.95;;
1567;SDS011;777;47.156;8.326;2023-04-28T13:44:13;4.68;;;4.18;;
1567;SDS011;777;47.156;8.326;2023-04-28T13:46:40;5.82;;;3.47;;
1567;SDS011;777;47.156;8.326;2023-04-28T13:49:09;4.25;;;3.42;;
1567;SDS011;777;47.156;8.326;2023-04-28T13:51:36;5.28;;;3.10;;
1567;SDS011;777;47.156;8.326;2023-04-28T13:54:03;6.30;;;3.30;;
1567;SDS011;777;47.156;8.326;2023-04-28T13:56:33;4.38;;;3.25;;
1567;SDS011;777;47.156;8.326;2023-04-28T13:59:01;3.35;;;3.05;;
1567;SDS011;777;47.156;8.326;2023-04-28T14:01:28;5.28;;;3.75;;
1567;SDS011;777;47.156;8.326;2023-04-28T14:03:55;5.47;;;4.32;;
1567;SDS011;777;47.156;8.326;2023-04-28T14:06:23;4.32;;;3.85;;
1567;SDS011;777;47.156;8.326;2023-04-28T14:08:51;4.20;;;3.80;;
1567;SDS011;777;47.156;8.326;2023-04-28T14:11:18;6.32;;;4.53;;
1567;SDS011;777;47.156;8.326;2023-04-28T14:13:46;6.50;;;4.05;;
1567;SDS011;777;47.156;8.326;2023-04-28T14:16:13;4.93;;;4.07;;
1567;SDS011;777;47.156;8.326;2023-04-28T14:18:40;4.85;;;4.10;;
1567;SDS011;777;47.156;8.326;2023-04-28T14:21:07;4.25;;;3.80;;
1567;SDS011;777;47.156;8.326;2023-04-28T14:23:36;5.13;;;3.90;;
1567;SDS011;777;47.156;8.326;2023-04-28T14:26:03;4.95;;;3.90;;
1567;SDS011;777;47.156;8.326;2023-04-28T14:28:31;4.85;;;3.88;;
1567;SDS011;777;47.156;8.326;2023-04-28T14:31:01;4.95;;;4.05;;
1567;SDS011;777;47.156;8.326;2023-04-28T14:33:30;4.65;;;3.70;;
1567;SDS011;777;47.156;8.326;2023-04-28T14:35:57;5.50;;;3.58;;
1567;SDS011;777;47.156;8.326;2023-04-28T14:38:26;4.28;;;3.50;;
1567;SDS011;777;47.156;8.326;2023-04-28T14:40:56;5.43;;;3.20;;
1567;SDS011;777;47.156;8.326;2023-04-28T14:43:23;5.70;;;3.25;;
1567;SDS011;777;47.156;8.326;2023-04-28T14:45:50;5.35;;;2.95;;
1567;SDS011;777;47.156;8.326;2023-04-28T14:48:17;4.07;;;3.00;;
1567;SDS011;777;47.156;8.326;2023-04-28T14:50:44;4.13;;;2.90;;
1567;SDS011;777;47.156;8.326;2023-04-28T14:53:11;4.70;;;2.55;;
1567;SDS011;777;47.156;8.326;2023-04-28T14:55:38;2.38;;;2.10;;
1567;SDS011;777;47.156;8.326;2023-04-28T14:58:07;3.08;;;2.08;;
1567;SDS011;777;47.156;8.326;2023-04-28T15:00:34;4.50;;;2.10;;
1567;SDS011;777;47.156;8.326;2023-04-28T15:03:01;4.10;;;2.60;;
1567;SDS011;777;47.156;8.326;2023-04-28T15:05:28;3.90;;;1.90;;
1567;SDS011;777;47.156;8.326;2023-04-28T15:07:55;4.10;;;1.90;;
1567;SDS011;777;47.156;8.326;2023-04-28T15:10:22;2.83;;;1.85;;
1567;SDS011;777;47.156;8.326;2023-04-28T15:12:50;1.98;;;1.77;;
1567;SDS011;777;47.156;8.326;2023-04-28T15:15:18;2.85;;;1.88;;
1567;SDS011;777;47.156;8.326;2023-04-28T15:17:45;3.28;;;1.80;;
1567;SDS011;777;47.156;8.326;2023-04-28T15:20:12;2.38;;;1.80;;
1567;SDS011;777;47.156;8.326;2023-04-28T15:22:39;1.70;;;1.42;;
1567;SDS011;777;47.156;8.326;2023-04-28T15:25:08;2.70;;;1.83;;
1567;SDS011;777;47.156;8.326;2023-04-28T15:27:35;2.60;;;1.80;;
1567;SDS011;777;47.156;8.326;2023-04-28T15:30:03;6.68;;;1.98;;
1567;SDS011;777;47.156;8.326;2023-04-28T15:32:32;2.88;;;2.05;;
1567;SDS011;777;47.156;8.326;2023-04-28T15:34:59;3.03;;;2.15;;
1567;SDS011;777;47.156;8.326;2023-04-28T15:37:40;3.85;;;2.35;;
1567;SDS011;777;47.156;8.326;2023-04-28T15:40:09;4.65;;;2.35;;
1567;SDS011;777;47.156;8.326;2023-04-28T15:42:36;2.67;;;2.20;;
1567;SDS011;777;47.156;8.326;2023-04-28T15:45:06;2.58;;;2.08;;
1567;SDS011;777;47.156;8.326;2023-04-28T15:47:37;5.32;;;2.40;;
1567;SDS011;777;47.156;8.326;2023-04-28T15:50:05;2.30;;;1.90;;
1567;SDS011;777;47.156;8.326;2023-04-28T15:52:33;3.50;;;2.25;;